createdAt,value
2018-08-22T06:00:49.678Z,716
2018-08-22T06:01:09.845Z,728
2018-08-22T06:01:30.009Z,740
2018-08-22T06:01:50.310Z,760
2018-08-22T06:02:10.501Z,788
2018-08-22T06:02:30.750Z,800
2018-08-22T06:02:50.942Z,816
2018-08-22T06:03:11.167Z,824
2018-08-22T06:03:31.397Z,840
2018-08-22T06:03:51.659Z,848
2018-08-22T06:04:11.949Z,864
2018-08-22T06:04:32.098Z,868
2018-08-22T06:04:52.268Z,884
2018-08-22T06:05:12.568Z,888
2018-08-22T06:05:32.845Z,904
2018-08-22T06:05:53.026Z,904
2018-08-22T06:06:13.213Z,904
2018-08-22T06:06:33.438Z,916
2018-08-22T06:06:53.819Z,944
2018-08-22T06:07:14.058Z,960
2018-08-22T06:07:34.390Z,972
2018-08-22T06:07:54.542Z,988
2018-08-22T06:08:14.700Z,1000
2018-08-22T06:08:34.865Z,1028
2018-08-22T06:08:55.015Z,1048
2018-08-22T06:09:15.265Z,1056
2018-08-22T06:09:35.428Z,1060
2018-08-22T06:09:55.641Z,1068
2018-08-22T06:10:15.771Z,1072
2018-08-22T06:10:35.956Z,1092
2018-08-22T06:10:56.186Z,1136
2018-08-22T06:11:16.371Z,1168
2018-08-22T06:11:36.626Z,1188
2018-08-22T06:11:56.855Z,1208
2018-08-22T06:12:17.038Z,1208
2018-08-22T06:12:37.325Z,1204
2018-08-22T06:12:57.492Z,1204
2018-08-22T06:13:17.691Z,1204
2018-08-22T06:13:37.971Z,1200
2018-08-22T06:13:58.140Z,1192
2018-08-22T06:14:18.304Z,1188
2018-08-22T06:14:38.469Z,1188
2018-08-22T06:14:58.722Z,1180
2018-08-22T06:15:18.976Z,1168
2018-08-22T06:15:39.275Z,1168
2018-08-22T06:15:59.541Z,1168
2018-08-22T06:16:19.774Z,1160
2018-08-22T06:16:39.969Z,1136
2018-08-22T06:17:00.165Z,1116
2018-08-22T06:17:20.309Z,1108
2018-08-22T06:17:41.241Z,1108
2018-08-22T06:18:01.382Z,1104
2018-08-22T06:18:21.550Z,1092
2018-08-22T06:18:41.688Z,1080
2018-08-22T06:19:01.922Z,1064
2018-08-22T06:19:22.143Z,1060
2018-08-22T06:19:42.322Z,1088
2018-08-22T06:20:02.603Z,1104
2018-08-22T06:20:22.799Z,1116
2018-08-22T06:20:43.059Z,1124
2018-08-22T06:21:03.243Z,1156
2018-08-22T06:21:23.481Z,1204
2018-08-22T06:21:43.683Z,1240
2018-08-22T06:22:03.948Z,1268
2018-08-22T06:22:24.138Z,1288
2018-08-22T06:22:44.364Z,1308
2018-08-22T06:23:04.559Z,1316
2018-08-22T06:23:24.738Z,1324
2018-08-22T06:23:44.992Z,1320
2018-08-22T06:24:05.209Z,1308
2018-08-22T06:24:25.430Z,1292
2018-08-22T06:24:45.736Z,1264
2018-08-22T06:25:05.877Z,1240
2018-08-22T06:25:26.046Z,1208
2018-08-22T06:25:46.240Z,1192
2018-08-22T06:26:06.474Z,1168
2018-08-22T06:26:26.739Z,1152
2018-08-22T06:26:46.944Z,1140
2018-08-22T06:27:07.154Z,1128
2018-08-22T06:27:27.395Z,1120
2018-08-22T06:27:47.627Z,1112
2018-08-22T06:28:07.807Z,1108
2018-08-22T06:28:28.057Z,1100
2018-08-22T06:28:48.316Z,1092
2018-08-22T06:29:08.488Z,1088
2018-08-22T06:29:28.779Z,1088
2018-08-22T06:29:49.017Z,1088
2018-08-22T06:30:09.256Z,1088
2018-08-22T06:30:29.501Z,1088
2018-08-22T06:30:49.674Z,1092
2018-08-22T06:31:09.884Z,1092
2018-08-22T06:31:30.108Z,1096
2018-08-22T06:31:50.367Z,1096
2018-08-22T06:32:10.588Z,1100
2018-08-22T06:32:30.817Z,1100
2018-08-22T06:32:51.047Z,1100
2018-08-22T06:33:11.266Z,1100
2018-08-22T06:33:31.650Z,1104
2018-08-22T06:33:51.930Z,1108
2018-08-22T06:34:12.139Z,1112
2018-08-22T06:34:32.319Z,1116
2018-08-22T06:34:52.482Z,1120
2018-08-22T06:35:12.710Z,1128
2018-08-22T06:35:32.934Z,1132
2018-08-22T06:35:53.165Z,1136
2018-08-22T06:36:13.412Z,1140
2018-08-22T06:36:33.707Z,1148
2018-08-22T06:36:53.878Z,1156
2018-08-22T06:37:14.117Z,1164
2018-08-22T06:37:34.324Z,1172
2018-08-22T06:37:54.555Z,1180
2018-08-22T06:38:14.735Z,1184
2018-08-22T06:38:34.971Z,1188
2018-08-22T06:38:55.217Z,1188
2018-08-22T06:39:15.380Z,1180
2018-08-22T06:39:35.700Z,1176
2018-08-22T06:39:55.903Z,1164
2018-08-22T06:40:16.138Z,1160
2018-08-22T06:40:36.309Z,1156
2018-08-22T06:40:56.563Z,1156
2018-08-22T06:41:16.742Z,1152
2018-08-22T06:41:36.969Z,1156
2018-08-22T06:41:57.161Z,1152
2018-08-22T06:42:17.409Z,1156
2018-08-22T06:42:37.620Z,1156
2018-08-22T06:42:57.826Z,1156
2018-08-22T06:43:17.976Z,1156
2018-08-22T06:43:38.206Z,1156
2018-08-22T06:43:58.396Z,1156
2018-08-22T06:44:18.631Z,1152
2018-08-22T06:44:38.830Z,1152
2018-08-22T06:44:59.066Z,1152
2018-08-22T06:45:19.230Z,1148
2018-08-22T06:45:39.415Z,1148
2018-08-22T06:45:59.581Z,1148
2018-08-22T06:46:19.767Z,1144
2018-08-22T06:46:40.027Z,1136
2018-08-22T06:47:00.220Z,1136
2018-08-22T06:47:20.443Z,1132
2018-08-22T06:47:40.685Z,1124
2018-08-22T06:48:00.854Z,1124
2018-08-22T06:48:21.180Z,1120
2018-08-22T06:48:42.312Z,1112
2018-08-22T06:49:02.554Z,1112
2018-08-22T06:49:22.674Z,1112
2018-08-22T06:49:42.856Z,1108
2018-08-22T06:50:03.036Z,1112
2018-08-22T06:50:23.880Z,1112
2018-08-22T06:50:44.112Z,1108
2018-08-22T06:51:04.325Z,1108
2018-08-22T06:51:24.536Z,1108
2018-08-22T06:51:44.727Z,1108
2018-08-22T06:52:04.866Z,1108
2018-08-22T06:52:26.432Z,1108
2018-08-22T06:52:46.668Z,1100
2018-08-22T06:53:06.866Z,1100
2018-08-22T06:53:27.074Z,1100
2018-08-22T06:53:47.248Z,1096
2018-08-22T06:54:07.441Z,1100
2018-08-22T06:54:27.660Z,1096
2018-08-22T06:54:47.926Z,1100
2018-08-22T06:55:08.134Z,1100
2018-08-22T06:55:28.925Z,1096
2018-08-22T06:55:49.132Z,1100
2018-08-22T06:56:09.368Z,1096
2018-08-22T06:56:29.609Z,1096
2018-08-22T06:56:49.878Z,1100
2018-08-22T06:57:10.271Z,1096
2018-08-22T06:57:30.490Z,1096
2018-08-22T06:57:51.492Z,1096
2018-08-22T06:58:13.506Z,1092
2018-08-22T06:58:33.893Z,1096
2018-08-22T06:58:54.029Z,1096
2018-08-22T06:59:14.211Z,1092
2018-08-22T06:59:34.497Z,1096
2018-08-22T06:59:54.794Z,1092
2018-08-22T07:00:15.035Z,1096
2018-08-22T07:00:35.227Z,1096
2018-08-22T07:00:55.460Z,1092
2018-08-22T07:01:16.399Z,1092
2018-08-22T07:01:36.729Z,1092
2018-08-22T07:01:56.881Z,1088
2018-08-22T07:02:17.119Z,1092
2018-08-22T07:02:37.377Z,1088
2018-08-22T07:02:58.350Z,1088
2018-08-22T07:03:18.705Z,1092
2018-08-22T07:03:38.910Z,1088
2018-08-22T07:03:59.147Z,1088
2018-08-22T07:04:19.434Z,1088
2018-08-22T07:04:39.690Z,1092
2018-08-22T07:04:59.923Z,1092
2018-08-22T07:05:20.203Z,1088
2018-08-22T07:05:40.386Z,1092
2018-08-22T07:06:00.695Z,1092
2018-08-22T07:06:20.929Z,1088
2018-08-22T07:06:41.842Z,1092
2018-08-22T07:07:02.064Z,1088
2018-08-22T07:07:22.342Z,1088
2018-08-22T07:07:42.546Z,1088
2018-08-22T07:08:04.748Z,1092
2018-08-22T07:08:24.889Z,1092
2018-08-22T07:08:45.073Z,1096
2018-08-22T07:09:06.075Z,1092
2018-08-22T07:09:26.984Z,1096
2018-08-22T07:09:47.280Z,1092
2018-08-22T07:10:07.466Z,1092
2018-08-22T07:10:28.460Z,1096
2018-08-22T07:10:48.703Z,1096
2018-08-22T07:11:08.878Z,1096
2018-08-22T07:11:29.080Z,1092
2018-08-22T07:11:49.256Z,1100
2018-08-22T07:12:09.502Z,1096
2018-08-22T07:12:29.631Z,1092
2018-08-22T07:12:49.829Z,1092
2018-08-22T07:13:09.993Z,1096
2018-08-22T07:13:30.182Z,1092
2018-08-22T07:13:50.345Z,1096
2018-08-22T07:14:10.655Z,1096
2018-08-22T07:14:30.866Z,1096
2018-08-22T07:14:52.031Z,1096
2018-08-22T07:15:12.235Z,1100
2018-08-22T07:15:33.160Z,1096
2018-08-22T07:15:53.351Z,1100
2018-08-22T07:16:13.522Z,1100
2018-08-22T07:16:33.726Z,1100
2018-08-22T07:16:53.918Z,1104
2018-08-22T07:17:15.474Z,1104
2018-08-22T07:17:35.695Z,1108
2018-08-22T07:17:55.960Z,1104
2018-08-22T07:18:16.219Z,1100
2018-08-22T07:18:36.998Z,1104
2018-08-22T07:18:57.160Z,1108
2018-08-22T07:19:17.352Z,1104
2018-08-22T07:19:37.554Z,1112
2018-08-22T07:19:57.809Z,1108
2018-08-22T07:20:17.975Z,1108
2018-08-22T07:20:38.256Z,1116
2018-08-22T07:20:58.640Z,1112
2018-08-22T07:21:18.771Z,1116
2018-08-22T07:21:39.025Z,1116
2018-08-22T07:21:59.220Z,1116
2018-08-22T07:22:19.401Z,1116
2018-08-22T07:22:40.098Z,1116
2018-08-22T07:23:00.324Z,1120
2018-08-22T07:23:20.558Z,1120
2018-08-22T07:23:41.018Z,1120
2018-08-22T07:24:01.288Z,1120
2018-08-22T07:24:21.515Z,1116
2018-08-22T07:24:42.192Z,1120
2018-08-22T07:25:02.432Z,1124
2018-08-22T07:25:22.605Z,1120
2018-08-22T07:25:42.790Z,1124
2018-08-22T07:26:02.962Z,1124
2018-08-22T07:26:23.196Z,1124
2018-08-22T07:26:43.417Z,1124
2018-08-22T07:27:03.613Z,1128
2018-08-22T07:27:23.824Z,1128
2018-08-22T07:27:44.094Z,1124
2018-08-22T07:28:04.286Z,1128
2018-08-22T07:28:24.514Z,1128
2018-08-22T07:28:44.701Z,1128
2018-08-22T07:29:04.897Z,1132
2018-08-22T07:29:25.144Z,1136
2018-08-22T07:29:45.406Z,1144
2018-08-22T07:30:05.767Z,1132
2018-08-22T07:30:26.076Z,1136
2018-08-22T07:30:46.187Z,1132
2018-08-22T07:31:07.193Z,1136
2018-08-22T07:31:27.419Z,1136
2018-08-22T07:31:47.642Z,1140
2018-08-22T07:32:07.849Z,1136
2018-08-22T07:32:28.709Z,1136
2018-08-22T07:32:49.009Z,1136
2018-08-22T07:33:09.351Z,1136
2018-08-22T07:33:29.547Z,1136
2018-08-22T07:33:49.784Z,1136
2018-08-22T07:34:10.086Z,1140
2018-08-22T07:34:30.322Z,1136
2018-08-22T07:34:51.187Z,1136
2018-08-22T07:35:11.413Z,1140
2018-08-22T07:35:31.667Z,1148
2018-08-22T07:35:52.008Z,1136
2018-08-22T07:36:12.127Z,1136
2018-08-22T07:36:32.388Z,1136
2018-08-22T07:36:52.572Z,1140
2018-08-22T07:37:12.838Z,1132
2018-08-22T07:37:32.989Z,1140
2018-08-22T07:37:54.120Z,1140
2018-08-22T07:38:15.200Z,1140
2018-08-22T07:38:35.389Z,1140
2018-08-22T07:38:55.582Z,1140
2018-08-22T07:39:15.842Z,1144
2018-08-22T07:39:36.515Z,1140
2018-08-22T07:39:56.712Z,1140
2018-08-22T07:40:16.944Z,1140
2018-08-22T07:40:37.123Z,1144
2018-08-22T07:40:58.174Z,1148
2018-08-22T07:41:18.466Z,1152
2018-08-22T07:41:39.287Z,1148
2018-08-22T07:41:59.605Z,1152
2018-08-22T07:42:20.755Z,1156
2018-08-22T07:42:41.008Z,1152
2018-08-22T07:43:01.160Z,1152
2018-08-22T07:43:21.397Z,1152
2018-08-22T07:43:43.106Z,1156
2018-08-22T07:44:03.372Z,1156
2018-08-22T07:44:23.646Z,1160
2018-08-22T07:44:43.905Z,1164
2018-08-22T07:45:04.163Z,1160
2018-08-22T07:45:25.294Z,1160
2018-08-22T07:45:45.522Z,1160
2018-08-22T07:46:05.690Z,1164
2018-08-22T07:46:25.864Z,1164
2018-08-22T07:46:46.191Z,1160
2018-08-22T07:47:06.447Z,1164
2018-08-22T07:47:26.699Z,1164
2018-08-22T07:47:46.986Z,1168
2018-08-22T07:48:07.260Z,1168
2018-08-22T07:48:27.627Z,1172
2018-08-22T07:48:47.978Z,1168
2018-08-22T07:49:09.117Z,1176
2018-08-22T07:49:29.360Z,1168
2018-08-22T07:49:49.559Z,1172
2018-08-22T07:50:09.826Z,1172
2018-08-22T07:50:30.108Z,1172
2018-08-22T07:50:50.378Z,1172
2018-08-22T07:51:10.635Z,1180
2018-08-22T07:51:30.868Z,1172
2018-08-22T07:51:51.239Z,1180
2018-08-22T07:52:11.510Z,1172
2018-08-22T07:52:31.735Z,1176
2018-08-22T07:52:51.971Z,1176
2018-08-22T07:53:12.199Z,1176
2018-08-22T07:53:32.477Z,1180
2018-08-22T07:53:52.692Z,1180
2018-08-22T07:54:12.898Z,1184
2018-08-22T07:54:33.130Z,1184
2018-08-22T07:54:53.349Z,1180
2018-08-22T07:55:14.793Z,1196
2018-08-22T07:55:35.219Z,1188
2018-08-22T07:55:55.421Z,1184
2018-08-22T07:56:15.730Z,1180
2018-08-22T07:56:35.969Z,1180
2018-08-22T07:56:56.245Z,1172
2018-08-22T07:57:16.470Z,1172
2018-08-22T07:57:36.761Z,1176
2018-08-22T07:57:56.988Z,1184
2018-08-22T07:58:18.166Z,1180
2018-08-22T07:58:38.398Z,1188
2018-08-22T07:58:58.715Z,1188
2018-08-22T07:59:19.072Z,1188
2018-08-22T07:59:39.346Z,1192
2018-08-22T07:59:59.623Z,1184
2018-08-22T08:00:19.841Z,1180
2018-08-22T08:00:40.070Z,1172
2018-08-22T08:01:00.281Z,1184
2018-08-22T08:01:20.441Z,1184
2018-08-22T08:01:42.242Z,1188
2018-08-22T08:02:03.246Z,1188
2018-08-22T08:02:23.459Z,1188
2018-08-22T08:02:43.635Z,1188
2018-08-22T08:03:03.919Z,1188
2018-08-22T08:03:25.182Z,1192
2018-08-22T08:03:45.485Z,1192
2018-08-22T08:04:06.902Z,1192
2018-08-22T08:04:27.148Z,1196
2018-08-22T08:04:47.309Z,1192
2018-08-22T08:05:07.465Z,1192
2018-08-22T08:05:27.778Z,1196
2018-08-22T08:05:48.039Z,1200
2018-08-22T08:06:08.202Z,1200
2018-08-22T08:06:28.410Z,1204
2018-08-22T08:06:49.326Z,1196
2018-08-22T08:07:09.451Z,1208
2018-08-22T08:07:29.667Z,1200
2018-08-22T08:07:49.904Z,1200
2018-08-22T08:08:10.095Z,1204
2018-08-22T08:08:30.358Z,1204
2018-08-22T08:08:50.647Z,1204
2018-08-22T08:09:10.895Z,1204
2018-08-22T08:09:31.880Z,1204
2018-08-22T08:09:52.059Z,1204
2018-08-22T08:10:12.295Z,1204
2018-08-22T08:10:32.593Z,1208
2018-08-22T08:10:53.091Z,1208
2018-08-22T08:11:13.444Z,1204
2018-08-22T08:11:33.703Z,1216
2018-08-22T08:11:54.013Z,1224
2018-08-22T08:12:14.211Z,1212
2018-08-22T08:12:34.464Z,1220
2018-08-22T08:12:54.739Z,1216
2018-08-22T08:13:14.938Z,1212
2018-08-22T08:13:35.860Z,1220
2018-08-22T08:13:56.172Z,1220
2018-08-22T08:14:16.598Z,1220
2018-08-22T08:14:36.987Z,1220
2018-08-22T08:14:57.193Z,1224
2018-08-22T08:15:17.493Z,1232
2018-08-22T08:15:37.710Z,1228
2018-08-22T08:15:57.883Z,1228
2018-08-22T08:16:18.059Z,1232
2018-08-22T08:16:38.402Z,1232
2018-08-22T08:16:58.750Z,1232
2018-08-22T08:17:19.012Z,1232
2018-08-22T08:17:39.277Z,1236
2018-08-22T08:18:00.221Z,1232
2018-08-22T08:18:20.423Z,1232
2018-08-22T08:18:40.618Z,1232
2018-08-22T08:19:00.843Z,1232
2018-08-22T08:19:21.055Z,1232
2018-08-22T08:19:41.215Z,1232
2018-08-22T08:20:01.413Z,1236
2018-08-22T08:20:22.289Z,1240
2018-08-22T08:20:43.109Z,1236
2018-08-22T08:21:03.340Z,1236
2018-08-22T08:21:23.555Z,1244
2018-08-22T08:21:44.320Z,1240
2018-08-22T08:22:04.556Z,1236
2018-08-22T08:22:24.734Z,1240
2018-08-22T08:22:44.956Z,1236
2018-08-22T08:23:05.151Z,1240
2018-08-22T08:23:25.455Z,1228
2018-08-22T08:23:46.206Z,1240
2018-08-22T08:24:06.533Z,1236
2018-08-22T08:24:26.763Z,1244
2018-08-22T08:24:47.939Z,1276
2018-08-22T08:25:08.165Z,1248
2018-08-22T08:25:28.328Z,1252
2018-08-22T08:25:49.890Z,1260
2018-08-22T08:26:10.332Z,1248
2018-08-22T08:26:32.067Z,1248
2018-08-22T08:26:52.325Z,1256
2018-08-22T08:27:12.618Z,1256
2018-08-22T08:27:33.035Z,1260
2018-08-22T08:27:53.276Z,1260
2018-08-22T08:28:13.688Z,1256
2018-08-22T08:28:33.930Z,1268
2018-08-22T08:28:54.128Z,1260
2018-08-22T08:29:14.317Z,1252
2018-08-22T08:29:34.523Z,1260
2018-08-22T08:29:55.387Z,1260
2018-08-22T08:30:15.619Z,1260
2018-08-22T08:30:35.992Z,1272
2018-08-22T08:30:56.172Z,1288
2018-08-22T08:31:16.470Z,1272
2018-08-22T08:31:36.845Z,1268
2018-08-22T08:31:57.236Z,1284
2018-08-22T08:32:17.462Z,1272
2018-08-22T08:32:37.815Z,1272
2018-08-22T08:32:58.195Z,1272
2018-08-22T08:33:18.539Z,1276
2018-08-22T08:33:39.546Z,1276
2018-08-22T08:33:59.803Z,1280
2018-08-22T08:34:20.079Z,1272
2018-08-22T08:34:40.280Z,1276
2018-08-22T08:35:00.569Z,1268
2018-08-22T08:35:20.872Z,1264
2018-08-22T08:35:41.164Z,1260
2018-08-22T08:36:01.660Z,1272
2018-08-22T08:36:21.960Z,1272
2018-08-22T08:36:42.202Z,1280
2018-08-22T08:37:03.971Z,1296
2018-08-22T08:37:24.242Z,1288
2018-08-22T08:37:45.331Z,1280
2018-08-22T08:38:05.689Z,1280
2018-08-22T08:38:25.923Z,1276
2018-08-22T08:38:46.220Z,1276
2018-08-22T08:39:07.393Z,1308
2018-08-22T08:39:27.731Z,1276
2018-08-22T08:39:47.935Z,1280
2018-08-22T08:40:08.156Z,1284
2018-08-22T08:40:28.400Z,1280
2018-08-22T08:40:49.458Z,1272
2018-08-22T08:41:09.760Z,1272
2018-08-22T08:41:29.999Z,1288
2018-08-22T08:41:50.209Z,1292
2018-08-22T08:42:10.384Z,1296
2018-08-22T08:42:30.600Z,1300
2018-08-22T08:42:51.445Z,1292
2018-08-22T08:43:11.702Z,1296
2018-08-22T08:43:31.995Z,1292
2018-08-22T08:43:52.174Z,1312
2018-08-22T08:44:12.416Z,1292
2018-08-22T08:44:32.591Z,1296
2018-08-22T08:44:52.796Z,1296
2018-08-22T08:45:13.120Z,1300
2018-08-22T08:45:33.378Z,1300
2018-08-22T08:45:53.713Z,1300
2018-08-22T08:46:14.002Z,1312
2018-08-22T08:46:34.255Z,1316
2018-08-22T08:46:54.590Z,1308
2018-08-22T08:47:14.821Z,1304
2018-08-22T08:47:35.139Z,1312
2018-08-22T08:47:55.433Z,1316
2018-08-22T08:48:16.389Z,1308
2018-08-22T08:48:36.609Z,1312
2018-08-22T08:48:56.862Z,1312
2018-08-22T08:49:17.127Z,1304
2018-08-22T08:49:37.528Z,1312
2018-08-22T08:49:57.714Z,1308
2018-08-22T08:50:17.936Z,1312
2018-08-22T08:50:39.008Z,1312
2018-08-22T08:50:59.181Z,1308
2018-08-22T08:51:19.405Z,1320
2018-08-22T08:51:39.628Z,1328
2018-08-22T08:51:59.843Z,1320
2018-08-22T08:52:20.045Z,1320
2018-08-22T08:52:40.296Z,1316
2018-08-22T08:53:00.638Z,1320
2018-08-22T08:53:20.951Z,1324
2018-08-22T08:53:41.116Z,1332
2018-08-22T08:54:01.529Z,1324
2018-08-22T08:54:21.763Z,1336
2018-08-22T08:54:42.602Z,1324
2018-08-22T08:55:02.766Z,1324
2018-08-22T08:55:23.009Z,1328
2018-08-22T08:55:43.215Z,1340
2018-08-22T08:56:03.480Z,1332
2018-08-22T08:56:23.723Z,1332
2018-08-22T08:56:43.974Z,1328
2018-08-22T08:57:04.357Z,1336
2018-08-22T08:57:24.938Z,1332
2018-08-22T08:57:45.024Z,1340
2018-08-22T08:58:05.260Z,1340
2018-08-22T08:58:25.485Z,1348
2018-08-22T08:58:45.703Z,1356
2018-08-22T08:59:05.932Z,1336
2018-08-22T08:59:26.217Z,1356
2018-08-22T08:59:47.419Z,1348
2018-08-22T09:00:07.770Z,1348
2018-08-22T09:00:28.121Z,1340
2018-08-22T09:00:48.365Z,1348
2018-08-22T09:01:08.643Z,1352
2018-08-22T09:01:28.900Z,1352
2018-08-22T09:01:49.196Z,1344
2018-08-22T09:02:10.319Z,1364
2018-08-22T09:02:30.569Z,1376
2018-08-22T09:02:50.826Z,1360
2018-08-22T09:03:11.148Z,1352
2018-08-22T09:03:31.393Z,1356
2018-08-22T09:03:51.731Z,1356
2018-08-22T09:04:12.261Z,1360
2018-08-22T09:04:32.533Z,1356
2018-08-22T09:04:52.783Z,1352
2018-08-22T09:05:13.048Z,1356
2018-08-22T09:05:33.310Z,1356
2018-08-22T09:05:53.556Z,1364
2018-08-22T09:06:13.704Z,1348
2018-08-22T09:06:34.089Z,1356
2018-08-22T09:06:54.275Z,1360
2018-08-22T09:07:14.551Z,1356
2018-08-22T09:07:34.932Z,1352
2018-08-22T09:07:55.318Z,1348
2018-08-22T09:08:15.556Z,1360
2018-08-22T09:08:35.835Z,1360
2018-08-22T09:08:56.031Z,1344
2018-08-22T09:09:16.388Z,1352
2018-08-22T09:09:36.721Z,1352
2018-08-22T09:09:57.021Z,1356
2018-08-22T09:10:17.411Z,1360
2018-08-22T09:10:37.794Z,1364
2018-08-22T09:10:58.157Z,1368
2018-08-22T09:11:18.424Z,1368
2018-08-22T09:11:38.737Z,1368
2018-08-22T09:11:59.003Z,1368
2018-08-22T09:12:20.012Z,1372
2018-08-22T09:12:40.209Z,1368
2018-08-22T09:13:00.406Z,1364
2018-08-22T09:13:20.647Z,1360
2018-08-22T09:13:40.812Z,1352
2018-08-22T09:14:01.107Z,1348
2018-08-22T09:14:21.370Z,1376
2018-08-22T09:14:41.768Z,1368
2018-08-22T09:15:03.050Z,1388
2018-08-22T09:15:23.361Z,1384
2018-08-22T09:15:43.632Z,1412
2018-08-22T09:16:03.948Z,1416
2018-08-22T09:16:24.152Z,1408
2018-08-22T09:16:44.401Z,1404
2018-08-22T09:17:04.589Z,1400
2018-08-22T09:17:24.993Z,1412
2018-08-22T09:17:45.206Z,1404
2018-08-22T09:18:06.010Z,1412
2018-08-22T09:18:26.233Z,1408
2018-08-22T09:18:46.479Z,1404
2018-08-22T09:19:06.711Z,1416
2018-08-22T09:19:26.993Z,1404
2018-08-22T09:19:47.226Z,1404
2018-08-22T09:20:07.429Z,1420
2018-08-22T09:20:27.598Z,1408
2018-08-22T09:20:47.863Z,1408
2018-08-22T09:21:08.222Z,1408
2018-08-22T09:21:29.514Z,1404
2018-08-22T09:21:49.702Z,1396
2018-08-22T09:22:09.968Z,1392
2018-08-22T09:22:30.228Z,1396
2018-08-22T09:22:50.474Z,1408
2018-08-22T09:23:10.821Z,1404
2018-08-22T09:23:31.062Z,1412
2018-08-22T09:23:51.329Z,1408
2018-08-22T09:24:11.681Z,1408
2018-08-22T09:24:31.886Z,1396
2018-08-22T09:24:52.038Z,1404
2018-08-22T09:25:12.342Z,1404
2018-08-22T09:25:32.609Z,1408
2018-08-22T09:25:52.851Z,1416
2018-08-22T09:26:13.120Z,1420
2018-08-22T09:26:33.334Z,1428
2018-08-22T09:26:53.601Z,1428
2018-08-22T09:27:13.950Z,1428
2018-08-22T09:27:34.255Z,1424
2018-08-22T09:27:54.577Z,1420
2018-08-22T09:28:15.621Z,1432
2018-08-22T09:28:35.892Z,1428
2018-08-22T09:28:56.177Z,1428
2018-08-22T09:29:16.421Z,1432
2018-08-22T09:29:36.845Z,1436
2018-08-22T09:29:57.013Z,1432
2018-08-22T09:30:17.290Z,1436
2018-08-22T09:30:37.547Z,1472
2018-08-22T09:30:57.844Z,1468
2018-08-22T09:31:18.068Z,1448
2018-08-22T09:31:38.319Z,1444
2018-08-22T09:31:58.566Z,1436
2018-08-22T09:32:18.884Z,1428
2018-08-22T09:32:42.002Z,1432
2018-08-22T09:33:02.279Z,1432
2018-08-22T09:33:22.567Z,1416
2018-08-22T09:33:42.891Z,1432
2018-08-22T09:34:03.078Z,1424
2018-08-22T09:34:23.339Z,1428
2018-08-22T09:34:43.578Z,1428
2018-08-22T09:35:03.733Z,1420
2018-08-22T09:35:24.022Z,1412
2018-08-22T09:35:44.169Z,1412
2018-08-22T09:36:04.361Z,1408
2018-08-22T09:36:24.558Z,1404
2018-08-22T09:36:44.880Z,1400
2018-08-22T09:37:05.088Z,1400
2018-08-22T09:37:25.385Z,1392
2018-08-22T09:37:45.705Z,1400
2018-08-22T09:38:06.365Z,1412
2018-08-22T09:38:28.100Z,1416
2018-08-22T09:38:48.357Z,1420
2018-08-22T09:39:08.681Z,1416
2018-08-22T09:39:28.968Z,1416
2018-08-22T09:39:49.202Z,1412
2018-08-22T09:40:10.156Z,1428
2018-08-22T09:40:30.354Z,1424
2018-08-22T09:40:50.549Z,1428
2018-08-22T09:41:10.766Z,1424
2018-08-22T09:41:32.210Z,1408
2018-08-22T09:41:52.476Z,1424
2018-08-22T09:42:12.795Z,1424
2018-08-22T09:42:33.036Z,1444
2018-08-22T09:42:54.166Z,1440
2018-08-22T09:43:14.460Z,1436
2018-08-22T09:43:34.733Z,1424
2018-08-22T09:43:54.959Z,1412
2018-08-22T09:44:15.196Z,1420
2018-08-22T09:44:35.405Z,1392
2018-08-22T09:44:55.658Z,1408
2018-08-22T09:45:15.896Z,1408
2018-08-22T09:45:36.050Z,1384
2018-08-22T09:45:56.268Z,1392
2018-08-22T09:46:17.250Z,1420
2018-08-22T09:46:37.496Z,1436
2018-08-22T09:46:57.733Z,1424
2018-08-22T09:47:17.953Z,1444
2018-08-22T09:47:38.175Z,1468
2018-08-22T09:47:58.469Z,1448
2018-08-22T09:48:18.722Z,1440
2018-08-22T09:48:39.607Z,1436
2018-08-22T09:48:59.945Z,1436
2018-08-22T09:49:20.145Z,1448
2018-08-22T09:49:40.443Z,1432
2018-08-22T09:50:00.730Z,1444
2018-08-22T09:50:20.900Z,1444
2018-08-22T09:50:41.672Z,1456
2018-08-22T09:51:02.104Z,1448
2018-08-22T09:51:22.440Z,1480
2018-08-22T09:51:42.675Z,1436
2018-08-22T09:52:02.996Z,1448
2018-08-22T09:52:23.796Z,1440
2018-08-22T09:52:43.950Z,1440
2018-08-22T09:53:04.768Z,1428
2018-08-22T09:53:24.982Z,1444
2018-08-22T09:53:45.270Z,1436
2018-08-22T09:54:05.426Z,1432
2018-08-22T09:54:25.630Z,1444
2018-08-22T09:54:45.898Z,1448
2018-08-22T09:55:06.115Z,1444
2018-08-22T09:55:26.355Z,1444
2018-08-22T09:55:46.564Z,1444
2018-08-22T09:56:06.743Z,1440
2018-08-22T09:56:27.009Z,1452
2018-08-22T09:56:47.272Z,1456
2018-08-22T09:57:07.459Z,1448
2018-08-22T09:57:27.660Z,1456
2018-08-22T09:57:47.940Z,1460
2018-08-22T09:58:08.255Z,1464
2018-08-22T09:58:28.521Z,1460
2018-08-22T09:58:48.699Z,1468
2018-08-22T09:59:08.938Z,1480
2018-08-22T09:59:29.262Z,1472
2018-08-22T09:59:49.537Z,1460
2018-08-22T10:00:09.792Z,1468
2018-08-22T10:00:30.153Z,1488
2018-08-22T10:00:50.592Z,1476
2018-08-22T10:01:10.869Z,1484
2018-08-22T10:01:31.699Z,1472
2018-08-22T10:01:51.959Z,1488
2018-08-22T10:02:12.181Z,1492
2018-08-22T10:02:34.192Z,1480
2018-08-22T10:02:54.460Z,1488
2018-08-22T10:03:14.658Z,1476
2018-08-22T10:03:34.844Z,1476
2018-08-22T10:03:55.001Z,1484
2018-08-22T10:04:15.297Z,1484
2018-08-22T10:04:36.152Z,1488
2018-08-22T10:04:56.349Z,1512
2018-08-22T10:05:17.069Z,1520
2018-08-22T10:05:37.357Z,1536
2018-08-22T10:05:57.584Z,1552
2018-08-22T10:06:17.944Z,1544
2018-08-22T10:06:39.205Z,1540
2018-08-22T10:06:59.419Z,1544
2018-08-22T10:07:19.651Z,1540
2018-08-22T10:07:41.467Z,1528
2018-08-22T10:08:01.680Z,1520
2018-08-22T10:08:21.967Z,1504
2018-08-22T10:08:42.227Z,1500
2018-08-22T10:09:02.367Z,1492
2018-08-22T10:09:22.574Z,1492
2018-08-22T10:09:42.813Z,1500
2018-08-22T10:10:03.124Z,1504
2018-08-22T10:10:23.309Z,1492
2018-08-22T10:10:43.583Z,1484
2018-08-22T10:11:03.784Z,1508
2018-08-22T10:11:23.968Z,1480
2018-08-22T10:11:44.122Z,1484
2018-08-22T10:12:04.300Z,1476
2018-08-22T10:12:24.434Z,1488
2018-08-22T10:12:44.605Z,1504
2018-08-22T10:13:05.445Z,1508
2018-08-22T10:13:25.674Z,1512
2018-08-22T10:13:45.873Z,1500
2018-08-22T10:14:06.097Z,1524
2018-08-22T10:14:26.354Z,1500
2018-08-22T10:14:46.592Z,1504
2018-08-22T10:15:06.797Z,1500
2018-08-22T10:15:27.038Z,1500
2018-08-22T10:15:47.260Z,1504
2018-08-22T10:16:07.397Z,1512
2018-08-22T10:16:27.572Z,1520
2018-08-22T10:16:47.743Z,1516
2018-08-22T10:17:07.968Z,1524
2018-08-22T10:17:28.387Z,1524
2018-08-22T10:17:48.582Z,1492
2018-08-22T10:18:08.779Z,1512
2018-08-22T10:18:29.912Z,1520
2018-08-22T10:18:50.100Z,1524
2018-08-22T10:19:10.396Z,1532
2018-08-22T10:19:30.703Z,1536
2018-08-22T10:19:50.901Z,1552
2018-08-22T10:20:11.143Z,1560
2018-08-22T10:20:31.592Z,1564
2018-08-22T10:20:51.962Z,1560
2018-08-22T10:21:12.209Z,1568
2018-08-22T10:21:32.590Z,1572
2018-08-22T10:21:52.750Z,1564
2018-08-22T10:22:13.061Z,1560
2018-08-22T10:22:33.251Z,1552
2018-08-22T10:22:53.433Z,1544
2018-08-22T10:23:13.752Z,1540
2018-08-22T10:23:34.072Z,1536
2018-08-22T10:23:54.293Z,1532
2018-08-22T10:24:14.602Z,1528
2018-08-22T10:24:34.847Z,1512
2018-08-22T10:24:55.296Z,1508
2018-08-22T10:25:16.447Z,1504
2018-08-22T10:25:36.719Z,1500
2018-08-22T10:25:56.956Z,1504
2018-08-22T10:38:29.861Z,1380
2018-08-22T10:38:50.146Z,1360
2018-08-22T10:39:10.346Z,1352
2018-08-22T10:39:30.749Z,1328
2018-08-22T10:39:50.937Z,1312
2018-08-22T10:40:11.204Z,1304
2018-08-22T10:40:31.720Z,1292
2018-08-22T10:40:51.981Z,1284
2018-08-22T10:41:12.211Z,1280
2018-08-22T10:41:32.499Z,1276
2018-08-22T10:41:52.761Z,1268
2018-08-22T10:42:13.005Z,1264
2018-08-22T10:42:33.272Z,1256
2018-08-22T10:42:53.503Z,1244
2018-08-22T10:43:13.657Z,1240
2018-08-22T10:43:33.933Z,1240
2018-08-22T10:43:54.221Z,1232